createdAt,value
2022-11-24T00:01:11.219Z,100247.88
2022-11-24T00:03:37.835Z,100250.09
2022-11-24T00:06:07.531Z,100248.16
2022-11-24T00:08:35.754Z,100254.91
2022-11-24T00:11:04.096Z,100254.91
2022-11-24T00:13:30.446Z,100265.34
2022-11-24T00:16:24.283Z,100253.66
2022-11-24T00:18:53.011Z,100258.56
2022-11-24T00:21:20.200Z,100261.34
2022-11-24T00:23:47.765Z,100263.28
2022-11-24T00:26:23.332Z,100256.94
2022-11-24T00:28:51.078Z,100252.84
2022-11-24T00:31:20.619Z,100252.00
2022-11-24T00:33:48.843Z,100248.69
2022-11-24T00:36:16.757Z,100253.50
2022-11-24T00:38:43.891Z,100263.28
2022-11-24T00:41:10.567Z,100265.88
2022-11-24T00:43:36.933Z,100268.75
2022-11-24T00:46:03.470Z,100263.66
2022-11-24T00:48:30.566Z,100263.53
2022-11-24T00:51:01.921Z,100272.59
2022-11-24T00:53:29.307Z,100266.53
2022-11-24T00:55:55.881Z,100267.63
2022-11-24T00:58:24.154Z,100264.75
2022-11-24T01:00:51.483Z,100267.50
2022-11-24T01:03:19.480Z,100270.09
2022-11-24T01:05:45.982Z,100269.56
2022-11-24T01:08:12.875Z,100271.91
2022-11-24T01:10:39.274Z,100272.31
2022-11-24T01:13:05.688Z,100278.78
2022-11-24T01:15:35.450Z,100280.97
2022-11-24T01:18:02.414Z,100284.84
2022-11-24T01:20:28.902Z,100276.03
2022-11-24T01:22:55.275Z,100277.28
2022-11-24T01:25:21.631Z,100286.09
2022-11-24T01:27:48.026Z,100284.44
2022-11-24T01:30:14.418Z,100286.91
2022-11-24T01:32:40.767Z,100293.09
2022-11-24T01:35:07.661Z,100295.84
2022-11-24T01:37:34.080Z,100295.31
2022-11-24T01:40:00.617Z,100297.25
2022-11-24T01:42:36.427Z,100305.06
2022-11-24T01:45:28.845Z,100303.81
2022-11-24T01:47:55.745Z,100308.19
2022-11-24T01:50:22.772Z,100303.66
2022-11-24T01:52:53.951Z,100302.56
2022-11-24T01:55:30.782Z,100306.41
2022-11-24T01:58:07.842Z,100308.19
2022-11-24T02:00:38.141Z,100307.50
2022-11-24T02:03:04.553Z,100311.50
2022-11-24T02:05:48.361Z,100315.50
2022-11-24T02:08:26.825Z,100315.50
2022-11-24T02:10:54.660Z,100317.69
2022-11-24T02:13:22.271Z,100322.91
2022-11-24T02:15:48.678Z,100314.53
2022-11-24T02:18:15.149Z,100323.34
2022-11-24T02:20:41.498Z,100331.19
2022-11-24T02:23:31.003Z,100326.34
2022-11-24T02:26:20.282Z,100339.97
2022-11-24T02:28:47.165Z,100329.53
2022-11-24T02:31:13.846Z,100335.03
2022-11-24T02:33:40.745Z,100340.94
2022-11-24T02:36:07.384Z,100341.06
2022-11-24T02:38:35.160Z,100339.00
2022-11-24T02:41:06.197Z,100343.00
2022-11-24T02:43:39.052Z,100344.91
2022-11-24T02:46:05.486Z,100344.06
2022-11-24T02:48:31.841Z,100342.16
2022-11-24T02:50:58.138Z,100344.63
2022-11-24T02:53:24.458Z,100348.91
2022-11-24T02:55:50.836Z,100349.03
2022-11-24T02:58:17.168Z,100346.28
2022-11-24T03:00:43.497Z,100348.34
2022-11-24T03:03:10.188Z,100354.81
2022-11-24T03:05:36.581Z,100348.91
2022-11-24T03:08:03.432Z,100341.06
2022-11-24T03:10:29.814Z,100348.34
2022-11-24T03:12:56.234Z,100347.53
2022-11-24T03:15:23.901Z,100349.59
2022-11-24T03:17:50.497Z,100355.63
2022-11-24T03:20:17.156Z,100356.75
2022-11-24T03:22:43.476Z,100356.88
2022-11-24T03:25:09.931Z,100353.31
2022-11-24T03:27:36.320Z,100350.72
2022-11-24T03:30:04.062Z,100351.78
2022-11-24T03:32:30.461Z,100367.88
2022-11-24T03:34:56.841Z,100364.97
2022-11-24T03:37:23.203Z,100360.59
2022-11-24T03:39:49.808Z,100367.19
2022-11-24T03:42:21.249Z,100377.06
2022-11-24T03:44:47.586Z,100376.38
2022-11-24T03:47:13.976Z,100380.38
2022-11-24T03:49:41.448Z,100380.09
2022-11-24T03:52:08.512Z,100376.38
2022-11-24T03:54:35.500Z,100382.72
2022-11-24T03:57:02.018Z,100388.06
2022-11-24T03:59:28.336Z,100381.72
2022-11-24T04:01:54.866Z,100391.06
2022-11-24T04:04:21.253Z,100393.28
2022-11-24T04:06:47.605Z,100414.03
2022-11-24T04:09:13.934Z,100412.38
2022-11-24T04:11:58.982Z,100414.84
2022-11-24T04:14:25.450Z,100411.69
2022-11-24T04:16:51.781Z,100410.44
2022-11-24T04:19:18.120Z,100408.41
2022-11-24T04:21:44.517Z,100405.53
2022-11-24T04:24:10.826Z,100400.44
2022-11-24T04:26:37.438Z,100401.94
2022-11-24T04:29:03.875Z,100408.81
2022-11-24T04:31:30.267Z,100415.00
2022-11-24T04:33:56.644Z,100420.63
2022-11-24T04:36:22.998Z,100428.47
2022-11-24T04:39:24.034Z,100421.56
2022-11-24T04:41:37.996Z,100425.84
2022-11-24T04:44:04.419Z,100424.88
2022-11-24T04:46:31.326Z,100427.09
2022-11-24T04:48:57.705Z,100432.31
2022-11-24T04:51:24.165Z,100430.78
2022-11-24T04:53:50.526Z,100436.00
2022-11-24T04:56:16.894Z,100432.69
2022-11-24T04:58:43.242Z,100432.00
2022-11-24T05:01:09.793Z,100435.88
2022-11-24T05:03:36.762Z,100433.00
2022-11-24T05:06:03.160Z,100441.78
2022-11-24T05:08:29.544Z,100441.91
2022-11-24T05:10:55.907Z,100442.06
2022-11-24T05:13:22.325Z,100444.81
2022-11-24T05:15:48.714Z,100446.31
2022-11-24T05:18:16.584Z,100446.88
2022-11-24T05:20:44.708Z,100462.25
2022-11-24T05:23:11.790Z,100457.56
2022-11-24T05:25:38.133Z,100471.59
2022-11-24T05:28:08.708Z,100476.00
2022-11-24T05:30:36.852Z,100482.75
2022-11-24T05:33:08.324Z,100495.69
2022-11-24T05:35:36.347Z,100477.53
2022-11-24T05:38:04.211Z,100487.97
2022-11-24T05:40:31.553Z,100494.00
2022-11-24T05:42:57.915Z,100492.91
2022-11-24T05:45:24.357Z,100492.09
2022-11-24T05:47:51.367Z,100501.28
2022-11-24T05:50:19.264Z,100509.69
2022-11-24T05:52:45.792Z,100516.69
2022-11-24T05:55:13.311Z,100516.81
2022-11-24T05:57:39.731Z,100524.22
2022-11-24T06:00:08.722Z,100536.34
2022-11-24T06:02:35.410Z,100532.91
2022-11-24T06:05:01.949Z,100542.78
2022-11-24T06:07:28.340Z,100551.56
2022-11-24T06:09:54.713Z,100559.53
2022-11-24T06:12:21.093Z,100551.00
2022-11-24T06:14:47.498Z,100558.16
2022-11-24T06:17:13.933Z,100560.94
2022-11-24T06:19:42.189Z,100564.47
2022-11-24T06:22:08.761Z,100570.53
2022-11-24T06:24:35.302Z,100579.31
2022-11-24T06:27:01.882Z,100585.25
2022-11-24T06:29:28.245Z,100580.72
2022-11-24T06:31:54.661Z,100588.66
2022-11-24T06:34:21.064Z,100586.19
2022-11-24T06:36:47.394Z,100594.59
2022-11-24T06:39:13.739Z,100604.22
2022-11-24T06:41:40.083Z,100609.44
2022-11-24T06:44:06.395Z,100611.91
2022-11-24T06:46:32.897Z,100615.59
2022-11-24T06:49:02.341Z,100623.44
2022-11-24T06:51:28.752Z,100626.44
2022-11-24T06:53:55.400Z,100627.84
2022-11-24T06:56:22.207Z,100629.50
2022-11-24T06:58:51.225Z,100643.09
2022-11-24T07:01:29.153Z,100648.31
2022-11-24T07:03:56.893Z,100651.63
2022-11-24T07:06:24.771Z,100654.03
2022-11-24T07:08:51.736Z,100661.03
2022-11-24T07:11:21.048Z,100662.13
2022-11-24T07:13:48.199Z,100670.78
2022-11-24T07:16:25.380Z,100674.41
2022-11-24T07:18:53.192Z,100690.19
2022-11-24T07:21:21.633Z,100687.19
2022-11-24T07:23:49.373Z,100709.75
2022-11-24T07:26:15.894Z,100708.78
2022-11-24T07:28:42.316Z,100703.16
2022-11-24T07:31:20.230Z,100713.34
2022-11-24T07:33:51.108Z,100719.38
2022-11-24T07:36:18.025Z,100714.84
2022-11-24T07:38:44.583Z,100718.31
2022-11-24T07:41:12.511Z,100730.97
2022-11-24T07:43:39.799Z,100735.94
2022-11-24T07:46:08.140Z,100741.00
2022-11-24T07:48:34.677Z,100748.31
2022-11-24T07:51:02.591Z,100742.69
2022-11-24T07:53:29.397Z,100751.88
2022-11-24T07:55:58.047Z,100751.88
2022-11-24T07:58:28.866Z,100754.47
2022-11-24T08:00:58.425Z,100761.16
2022-11-24T08:03:25.537Z,100764.63
2022-11-24T08:06:22.797Z,100765.88
2022-11-24T08:08:46.878Z,100769.31
2022-11-24T08:11:15.640Z,100771.81
2022-11-24T08:13:42.416Z,100777.47
2022-11-24T08:16:11.329Z,100784.59
2022-11-24T08:18:38.467Z,100787.09
2022-11-24T08:21:06.077Z,100790.28
2022-11-24T08:23:32.814Z,100786.13
2022-11-24T08:26:04.921Z,100795.63
2022-11-24T08:28:32.766Z,100799.22
2022-11-24T08:31:08.495Z,100803.06
2022-11-24T08:33:35.261Z,100804.31
2022-11-24T08:36:10.455Z,100808.78
2022-11-24T08:38:37.404Z,100819.47
2022-11-24T08:41:06.470Z,100814.94
2022-11-24T08:43:33.442Z,100828.16
2022-11-24T08:46:06.146Z,100820.16
2022-11-24T08:48:33.250Z,100827.63
2022-11-24T08:51:07.054Z,100829.03
2022-11-24T08:53:33.634Z,100841.91
2022-11-24T08:56:01.008Z,100839.03
2022-11-24T08:58:28.988Z,100840.28
2022-11-24T09:00:56.589Z,100835.66
2022-11-24T09:03:22.970Z,100844.31
2022-11-24T09:05:52.195Z,100849.28
2022-11-24T09:08:19.224Z,100850.78
2022-11-24T09:10:45.583Z,100859.59
2022-11-24T09:13:12.009Z,100847.47
2022-11-24T09:15:38.383Z,100867.94
2022-11-24T09:18:05.394Z,100866.44
2022-11-24T09:20:31.725Z,100869.88
2022-11-24T09:22:58.113Z,100868.34
2022-11-24T09:25:24.586Z,100871.53
2022-11-24T09:27:51.317Z,100867.25
2022-11-24T09:30:17.843Z,100879.63
2022-11-24T09:32:44.249Z,100877.84
2022-11-24T09:35:10.583Z,100885.53
2022-11-24T09:37:37.167Z,100892.69
2022-11-24T09:40:03.996Z,100897.38
2022-11-24T09:42:53.285Z,100901.16
2022-11-24T09:46:03.426Z,100904.59
2022-11-24T09:48:50.333Z,100912.66
2022-11-24T09:51:19.289Z,100905.75
2022-11-24T09:53:54.973Z,100914.31
2022-11-24T09:56:28.422Z,100903.97
2022-11-24T09:59:02.903Z,100916.00
2022-11-24T10:01:35.567Z,100919.69
2022-11-24T10:04:06.279Z,100917.22
2022-11-24T10:06:44.472Z,100917.41
2022-11-24T10:09:40.009Z,100923.53
2022-11-24T10:12:44.141Z,100933.47
2022-11-24T10:15:30.786Z,100943.41
2022-11-24T10:18:26.908Z,100942.63
2022-11-24T10:21:17.425Z,100943.78
2022-11-24T10:24:08.845Z,100944.84
2022-11-24T10:26:37.868Z,100946.66
2022-11-24T10:29:41.908Z,100949.59
2022-11-24T10:32:35.402Z,100946.72
2022-11-24T10:35:24.894Z,100958.31
2022-11-24T10:37:57.876Z,100966.13
2022-11-24T10:43:22.960Z,100961.50
2022-11-24T10:45:50.058Z,100963.28
2022-11-24T10:48:24.102Z,100970.88
2022-11-24T10:50:56.608Z,100960.56
2022-11-24T10:53:35.391Z,100972.44
2022-11-24T10:56:05.130Z,100964.31
2022-11-24T10:58:37.697Z,100970.50
2022-11-24T11:01:14.066Z,100981.41
2022-11-24T11:03:49.393Z,100974.50
2022-11-24T11:06:23.726Z,100978.13
2022-11-24T11:08:50.379Z,100983.91
2022-11-24T11:11:27.164Z,100982.81
2022-11-24T11:14:04.225Z,100980.34
2022-11-24T11:16:53.456Z,100983.66
2022-11-24T11:19:49.738Z,100987.25
2022-11-24T11:22:24.046Z,100998.69
2022-11-24T11:25:22.457Z,100997.31
2022-11-24T11:27:48.964Z,101007.69
2022-11-24T11:36:12.109Z,101009.19
2022-11-24T11:38:40.377Z,100986.97
2022-11-24T11:41:14.324Z,101002.28
2022-11-24T11:43:41.572Z,101002.16
2022-11-24T11:46:07.981Z,100999.81
2022-11-24T11:48:43.245Z,100998.03
2022-11-24T11:51:25.634Z,100993.34
2022-11-24T11:54:09.244Z,100999.94
2022-11-24T11:56:46.479Z,100991.06
2022-11-24T12:00:04.927Z,100988.69
2022-11-24T12:02:36.917Z,100988.69
2022-11-24T12:05:44.834Z,100987.69
2022-11-24T12:09:03.139Z,100981.84
2022-11-24T12:11:59.122Z,100993.31
2022-11-24T12:14:44.029Z,101000.31
2022-11-24T12:17:28.747Z,100999.50
2022-11-24T12:20:35.902Z,101002.72
2022-11-24T12:23:30.517Z,100991.78
2022-11-24T12:26:16.805Z,101004.03
2022-11-24T12:28:52.301Z,101000.25
2022-11-24T12:31:35.077Z,100998.69
2022-11-24T12:34:16.813Z,100996.69
2022-11-24T12:37:00.062Z,100996.69
2022-11-24T12:39:38.598Z,101002.50
2022-11-24T12:42:09.748Z,101001.38
2022-11-24T12:44:50.234Z,101008.97
2022-11-24T12:47:29.277Z,100990.13
2022-11-24T12:50:19.112Z,100994.16
2022-11-24T12:52:58.613Z,100994.34
2022-11-24T12:55:27.721Z,100994.16
2022-11-24T12:58:07.696Z,100996.78
2022-11-24T13:00:47.919Z,101000.63
2022-11-24T13:03:14.288Z,101003.94
2022-11-24T13:06:03.174Z,101004.81
2022-11-24T13:08:30.891Z,101009.22
2022-11-24T13:11:23.458Z,101025.16
2022-11-24T13:14:14.829Z,101014.19
2022-11-24T13:17:21.864Z,101014.47
2022-11-24T13:19:40.046Z,101022.59
2022-11-24T13:22:09.312Z,101022.94
2022-11-24T13:24:38.996Z,101020.19
2022-11-24T13:27:26.557Z,101019.75
2022-11-24T13:29:54.220Z,101025.59
2022-11-24T13:32:23.539Z,101019.56
2022-11-24T13:34:54.652Z,101020.78
2022-11-24T13:37:31.272Z,101018.16
2022-11-24T13:40:23.013Z,101015.00
2022-11-24T13:43:01.121Z,101008.38
2022-11-24T13:45:39.777Z,101015.44
2022-11-24T13:48:18.605Z,101014.25
2022-11-24T13:50:51.674Z,101016.88
2022-11-24T13:53:42.676Z,101018.28
2022-11-24T13:56:23.773Z,101009.88
2022-11-24T13:59:02.984Z,101011.53
2022-11-24T14:01:36.624Z,101006.03
2022-11-24T14:04:33.977Z,101010.38
2022-11-24T14:09:52.231Z,101010.19
2022-11-24T14:12:26.646Z,101015.44
2022-11-24T14:14:57.434Z,101007.31
2022-11-24T14:17:26.664Z,101005.66
2022-11-24T14:19:57.885Z,101002.63
2022-11-24T14:22:26.741Z,101008.72
2022-11-24T14:24:55.880Z,101004.03
2022-11-24T14:27:28.447Z,101002.78
2022-11-24T14:30:16.797Z,101002.91
2022-11-24T14:33:00.895Z,101000.16
2022-11-24T14:35:30.074Z,101006.97
2022-11-24T14:37:56.672Z,101001.31
2022-11-24T14:40:40.602Z,101003.94
2022-11-24T14:43:17.651Z,101004.75
2022-11-24T14:45:54.862Z,101003.41
2022-11-24T14:48:29.000Z,101008.78
2022-11-24T14:51:16.033Z,101004.09
2022-11-24T14:53:45.309Z,101007.84
2022-11-24T14:56:29.914Z,101009.13
2022-11-24T14:58:57.682Z,101010.22
2022-11-24T15:01:26.803Z,101008.44
2022-11-24T15:04:32.293Z,101009.81
2022-11-24T15:07:03.308Z,101010.50
2022-11-24T15:09:32.476Z,101015.34
2022-11-24T15:12:05.751Z,101015.22
2022-11-24T15:14:34.542Z,101008.75
2022-11-24T15:17:01.584Z,101015.94
2022-11-24T15:19:33.542Z,101020.50
2022-11-24T15:22:00.312Z,101015.81
2022-11-24T15:24:27.296Z,101025.63
2022-11-24T15:27:01.078Z,101024.94
2022-11-24T15:29:27.374Z,101025.59
2022-11-24T15:31:53.779Z,101021.19
2022-11-24T15:34:20.254Z,101025.72
2022-11-24T15:36:46.594Z,101027.81
2022-11-24T15:39:12.922Z,101028.34
2022-11-24T15:41:40.657Z,101030.97
2022-11-24T15:44:07.847Z,101039.81
2022-11-24T15:46:38.056Z,101034.84
2022-11-24T15:49:05.452Z,101041.19
2022-11-24T15:51:32.004Z,101046.13
2022-11-24T15:54:00.994Z,101041.03
2022-11-24T15:56:33.879Z,101049.84
2022-11-24T15:59:01.558Z,101056.34
2022-11-24T16:01:31.416Z,101060.06
2022-11-24T16:03:57.885Z,101060.84
2022-11-24T16:06:25.482Z,101057.81
2022-11-24T16:08:56.401Z,101054.38
2022-11-24T16:11:23.362Z,101052.97
2022-11-24T16:13:53.465Z,101060.25
2022-11-24T16:16:22.289Z,101059.44
2022-11-24T16:18:48.833Z,101053.78
2022-11-24T16:21:15.233Z,101059.28
2022-11-24T16:23:41.655Z,101059.81
2022-11-24T16:26:08.083Z,101050.59
2022-11-24T16:28:34.651Z,101054.97
2022-11-24T16:31:01.355Z,101047.06
2022-11-24T16:33:30.598Z,101053.56
2022-11-24T16:35:57.106Z,101055.09
2022-11-24T16:38:23.574Z,101047.59
2022-11-24T16:40:54.579Z,101039.88
2022-11-24T16:43:21.005Z,101047.88
2022-11-24T16:45:59.890Z,101049.66
2022-11-24T16:48:26.318Z,101046.34
2022-11-24T16:50:52.711Z,101046.34
2022-11-24T16:53:19.166Z,101054.06
2022-11-24T16:55:56.639Z,101047.19
2022-11-24T16:58:23.081Z,101056.00
2022-11-24T17:00:49.959Z,101055.53
2022-11-24T17:03:16.430Z,101053.19
2022-11-24T17:05:42.823Z,101050.00
2022-11-24T17:08:09.197Z,101062.53
2022-11-24T17:10:39.556Z,101051.09
2022-11-24T17:13:05.883Z,101050.47
2022-11-24T17:15:35.506Z,101052.53
2022-11-24T17:20:50.936Z,101041.38
2022-11-24T17:23:19.480Z,101046.72
2022-11-24T17:25:45.913Z,101037.59
2022-11-24T17:28:12.313Z,101035.13
2022-11-24T17:30:38.729Z,101042.13
2022-11-24T17:33:05.119Z,101044.91
2022-11-24T17:35:34.000Z,101051.53
2022-11-24T17:38:01.220Z,101049.28
2022-11-24T17:40:29.543Z,101056.81
2022-11-24T17:43:00.223Z,101061.78
2022-11-24T17:45:28.494Z,101056.81
2022-11-24T17:47:56.094Z,101058.03
2022-11-24T17:50:25.742Z,101064.06
2022-11-24T17:52:52.336Z,101061.69
2022-11-24T17:55:18.636Z,101068.47
2022-11-24T17:57:45.027Z,101066.56
2022-11-24T18:00:12.060Z,101069.06
2022-11-24T18:02:38.713Z,101056.22
2022-11-24T18:05:05.382Z,101070.72
2022-11-24T18:07:31.959Z,101071.69
2022-11-24T18:09:58.338Z,101072.94
2022-11-24T18:12:24.765Z,101072.63
2022-11-24T18:14:51.075Z,101077.84
2022-11-24T18:17:17.409Z,101060.88
2022-11-24T18:19:43.761Z,101071.47
2022-11-24T18:22:10.253Z,101069.34
2022-11-24T18:24:36.956Z,101061.41
2022-11-24T18:27:03.591Z,101065.09
2022-11-24T18:29:29.968Z,101060.81
2022-11-24T18:31:56.443Z,101058.91
2022-11-24T18:34:24.812Z,101057.25
2022-11-24T18:36:54.156Z,101058.56
2022-11-24T18:39:20.632Z,101062.25
2022-11-24T18:41:47.188Z,101063.91
2022-11-24T18:44:13.750Z,101067.84
2022-11-24T18:46:40.220Z,101058.69
2022-11-24T18:49:07.142Z,101067.22
2022-11-24T18:51:34.117Z,101057.47
2022-11-24T18:54:02.112Z,101063.66
2022-11-24T18:56:29.120Z,101062.69
2022-11-24T18:58:56.452Z,101057.38
2022-11-24T19:01:28.260Z,101057.47
2022-11-24T19:03:57.137Z,101056.28
2022-11-24T19:06:28.596Z,101052.63
2022-11-24T19:08:55.614Z,101054.03
2022-11-24T19:11:24.856Z,101049.03
2022-11-24T19:13:51.652Z,101051.41
2022-11-24T19:16:19.823Z,101042.16
2022-11-24T19:18:51.995Z,101045.28
2022-11-24T19:21:20.505Z,101047.06
2022-11-24T19:23:46.879Z,101050.75
2022-11-24T19:26:13.459Z,101049.22
2022-11-24T19:28:39.922Z,101053.19
2022-11-24T19:31:09.989Z,101044.94
2022-11-24T19:33:36.368Z,101050.56
2022-11-24T19:36:09.969Z,101041.00
2022-11-24T19:38:36.440Z,101037.63
2022-11-24T19:41:07.812Z,101036.09
2022-11-24T19:43:34.585Z,101032.66
2022-11-24T19:46:06.782Z,101031.38
2022-11-24T19:48:37.981Z,101031.88
2022-11-24T19:51:10.440Z,101024.75
2022-11-24T19:53:37.926Z,101027.72
2022-11-24T19:56:12.896Z,101025.22
2022-11-24T19:58:39.979Z,101026.66
2022-11-24T20:01:14.969Z,101030.09
2022-11-24T20:03:42.973Z,101027.13
2022-11-24T20:06:11.997Z,101041.03
2022-11-24T20:08:39.576Z,101035.34
2022-11-24T20:11:07.299Z,101038.22
2022-11-24T20:13:35.180Z,101039.03
2022-11-24T20:16:11.616Z,101034.03
2022-11-24T20:18:42.107Z,101047.38
2022-11-24T20:21:13.998Z,101040.97
2022-11-24T20:23:41.178Z,101035.53
2022-11-24T20:26:12.764Z,101045.72
2022-11-24T20:28:39.478Z,101040.03
2022-11-24T20:31:14.706Z,101042.28
2022-11-24T20:33:42.023Z,101038.97
2022-11-24T20:36:11.754Z,101028.63
2022-11-24T20:38:39.324Z,101034.22
2022-11-24T20:41:09.521Z,101037.03
2022-11-24T20:43:36.914Z,101039.75
2022-11-24T20:46:05.643Z,101039.06
2022-11-24T20:48:33.050Z,101048.22
2022-11-24T20:51:07.997Z,101050.81
2022-11-24T20:53:34.654Z,101038.03
2022-11-24T20:56:06.709Z,101043.47
2022-11-24T20:58:35.183Z,101048.31
2022-11-24T21:01:05.789Z,101052.34
2022-11-24T21:03:32.298Z,101057.84
2022-11-24T21:05:58.613Z,101047.28
2022-11-24T21:08:25.147Z,101047.63
2022-11-24T21:10:53.240Z,101045.00
2022-11-24T21:13:19.579Z,101041.44
2022-11-24T21:15:46.171Z,101051.03
2022-11-24T21:18:12.608Z,101039.66
2022-11-24T21:20:38.943Z,101037.03
2022-11-24T21:23:05.657Z,101033.09
2022-11-24T21:25:32.082Z,101045.31
2022-11-24T21:27:58.463Z,101034.03
2022-11-24T21:30:25.554Z,101037.47
2022-11-24T21:32:51.877Z,101023.38
2022-11-24T21:35:18.237Z,101040.09
2022-11-24T21:37:44.544Z,101027.50
2022-11-24T21:40:11.339Z,101031.63
2022-11-24T21:42:37.731Z,101026.19
2022-11-24T21:45:04.596Z,101031.41
2022-11-24T21:47:31.001Z,101021.44
2022-11-24T21:49:57.336Z,101022.75
2022-11-24T21:52:23.723Z,101015.72
2022-11-24T21:54:50.260Z,101009.69
2022-11-24T21:57:16.738Z,101003.56
2022-11-24T21:59:43.140Z,101003.84
2022-11-24T22:02:13.421Z,100991.47
2022-11-24T22:04:39.833Z,101005.59
2022-11-24T22:07:06.322Z,100993.59
2022-11-24T22:09:33.835Z,100991.78
2022-11-24T22:12:00.807Z,100980.53
2022-11-24T22:14:27.175Z,100988.59
2022-11-24T22:16:53.506Z,100980.53
2022-11-24T22:19:19.979Z,100983.13
2022-11-24T22:21:46.349Z,100985.63
2022-11-24T22:24:12.922Z,100976.69
2022-11-24T22:26:39.310Z,100983.56
2022-11-24T22:29:06.222Z,100976.00
2022-11-24T22:31:33.259Z,100975.59
2022-11-24T22:34:00.757Z,100986.19
2022-11-24T22:36:28.921Z,100975.72
2022-11-24T22:38:56.292Z,100971.13
2022-11-24T22:41:23.515Z,100971.72
2022-11-24T22:43:50.239Z,100969.09
2022-11-24T22:46:22.463Z,100967.34
2022-11-24T22:48:50.304Z,100960.44
2022-11-24T22:51:19.431Z,100959.50
2022-11-24T22:53:51.114Z,100960.44
2022-11-24T22:56:18.434Z,100959.84
2022-11-24T22:58:45.473Z,100951.31
2022-11-24T23:01:19.029Z,100958.06
2022-11-24T23:03:45.909Z,100961.78
2022-11-24T23:06:17.640Z,100955.44
2022-11-24T23:08:44.411Z,100958.91
2022-11-24T23:11:14.031Z,100963.63
2022-11-24T23:13:41.046Z,100963.75
2022-11-24T23:16:18.388Z,100958.88
2022-11-24T23:18:51.020Z,100953.88
2022-11-24T23:21:29.630Z,100956.69
2022-11-24T23:23:57.653Z,100950.16
2022-11-24T23:26:27.591Z,100952.41
2022-11-24T23:28:54.088Z,100953.63
2022-11-24T23:31:24.387Z,100955.16
2022-11-24T23:33:50.770Z,100947.56
2022-11-24T23:36:19.023Z,100955.03
2022-11-24T23:38:46.181Z,100957.06
2022-11-24T23:41:15.130Z,100960.00
2022-11-24T23:43:42.650Z,100947.03
2022-11-24T23:46:14.924Z,100945.53
2022-11-24T23:48:41.583Z,100946.50
2022-11-24T23:51:19.432Z,100944.00
2022-11-24T23:53:46.580Z,100945.41
2022-11-24T23:56:15.765Z,100949.13
2022-11-24T23:58:42.201Z,100948.41
